sensor_id;sensor_type;location;lat;lon;timestamp;pressure;altitude;pressure_sealevel;temperature;humidity
37892;BME280;45797;47.466;9.486;2023-09-18T00:05:02;95314.44;;;25.18;50.63
37892;BME280;45797;47.466;9.486;2023-09-18T00:10:05;95308.66;;;25.21;50.01
37892;BME280;45797;47.466;9.486;2023-09-18T00:15:19;95321.84;;;25.23;49.88
37892;BME280;45797;47.466;9.486;2023-09-18T00:20:21;95330.06;;;25.28;49.79
37892;BME280;45797;47.466;9.486;2023-09-18T00:25:26;95319.13;;;25.29;49.88
37892;BME280;45797;47.466;9.486;2023-09-18T00:30:38;95309.06;;;25.18;49.96
37892;BME280;45797;47.466;9.486;2023-09-18T00:35:46;95300.94;;;24.80;51.43
37892;BME280;45797;47.466;9.486;2023-09-18T00:40:58;95342.25;;;24.39;52.59
37892;BME280;45797;47.466;9.486;2023-09-18T00:46:07;95299.19;;;24.08;53.45
37892;BME280;45797;47.466;9.486;2023-09-18T00:51:13;95278.41;;;23.90;53.32
37892;BME280;45797;47.466;9.486;2023-09-18T00:56:16;95299.78;;;23.77;54.08
37892;BME280;45797;47.466;9.486;2023-09-18T01:01:23;95299.16;;;23.61;54.41
37892;BME280;45797;47.466;9.486;2023-09-18T01:06:29;95302.59;;;23.49;54.94
37892;BME280;45797;47.466;9.486;2023-09-18T01:12:23;95316.53;;;23.31;55.21
37892;BME280;45797;47.466;9.486;2023-09-18T01:17:23;95339.16;;;23.28;55.70
37892;BME280;45797;47.466;9.486;2023-09-18T01:22:38;95318.16;;;23.12;55.30
37892;BME280;45797;47.466;9.486;2023-09-18T01:27:39;95326.31;;;23.04;56.51
37892;BME280;45797;47.466;9.486;2023-09-18T01:33:06;95312.69;;;22.92;56.21
37892;BME280;45797;47.466;9.486;2023-09-18T01:38:23;95300.50;;;22.83;56.74
37892;BME280;45797;47.466;9.486;2023-09-18T01:43:35;95294.94;;;22.78;56.96
37892;BME280;45797;47.466;9.486;2023-09-18T01:48:45;95284.81;;;22.73;57.00
37892;BME280;45797;47.466;9.486;2023-09-18T01:53:55;95276.81;;;22.67;57.25
37892;BME280;45797;47.466;9.486;2023-09-18T01:59:02;95266.09;;;22.60;57.46
37892;BME280;45797;47.466;9.486;2023-09-18T02:04:04;95258.22;;;22.52;58.00
37892;BME280;45797;47.466;9.486;2023-09-18T02:09:17;95229.44;;;22.41;58.11
37892;BME280;45797;47.466;9.486;2023-09-18T02:14:17;95217.88;;;22.34;58.17
37892;BME280;45797;47.466;9.486;2023-09-18T02:19:30;95218.25;;;22.24;58.24
37892;BME280;45797;47.466;9.486;2023-09-18T02:24:36;95212.44;;;22.14;58.42
37892;BME280;45797;47.466;9.486;2023-09-18T02:29:37;95212.66;;;22.12;58.52
37892;BME280;45797;47.466;9.486;2023-09-18T02:34:45;95200.03;;;22.06;58.50
37892;BME280;45797;47.466;9.486;2023-09-18T02:39:46;95197.56;;;22.05;58.85
37892;BME280;45797;47.466;9.486;2023-09-18T02:44:46;95204.13;;;22.02;58.66
37892;BME280;45797;47.466;9.486;2023-09-18T02:49:46;95199.38;;;21.98;59.00
37892;BME280;45797;47.466;9.486;2023-09-18T02:54:57;95178.47;;;22.01;58.66
37892;BME280;45797;47.466;9.486;2023-09-18T03:00:00;95205.88;;;22.16;58.34
37892;BME280;45797;47.466;9.486;2023-09-18T03:05:07;95219.28;;;22.23;58.24
37892;BME280;45797;47.466;9.486;2023-09-18T03:10:09;95228.56;;;22.27;58.15
37892;BME280;45797;47.466;9.486;2023-09-18T03:15:13;95247.41;;;22.26;58.25
37892;BME280;45797;47.466;9.486;2023-09-18T03:20:15;95262.16;;;22.21;58.65
37892;BME280;45797;47.466;9.486;2023-09-18T03:25:23;95260.28;;;22.15;58.71
37892;BME280;45797;47.466;9.486;2023-09-18T03:30:25;95285.31;;;22.14;58.88
37892;BME280;45797;47.466;9.486;2023-09-18T03:35:30;95296.78;;;22.08;59.21
37892;BME280;45797;47.466;9.486;2023-09-18T03:40:41;95296.88;;;22.00;59.47
37892;BME280;45797;47.466;9.486;2023-09-18T03:45:43;95307.56;;;22.00;59.80
37892;BME280;45797;47.466;9.486;2023-09-18T03:50:47;95314.09;;;21.98;59.70
37892;BME280;45797;47.466;9.486;2023-09-18T03:55:49;95336.91;;;22.00;59.43
37892;BME280;45797;47.466;9.486;2023-09-18T04:00:50;95328.25;;;21.98;59.60
37892;BME280;45797;47.466;9.486;2023-09-18T04:05:54;95350.25;;;22.00;59.09
37892;BME280;45797;47.466;9.486;2023-09-18T04:10:56;95347.81;;;22.05;58.75
37892;BME280;45797;47.466;9.486;2023-09-18T04:15:59;95339.69;;;22.13;58.75
37892;BME280;45797;47.466;9.486;2023-09-18T04:21:02;95348.78;;;22.19;58.44
37892;BME280;45797;47.466;9.486;2023-09-18T04:26:09;95366.69;;;22.25;58.19
37892;BME280;45797;47.466;9.486;2023-09-18T04:31:11;95382.75;;;22.32;58.16
37892;BME280;45797;47.466;9.486;2023-09-18T04:36:24;95373.53;;;22.34;58.08
37892;BME280;45797;47.466;9.486;2023-09-18T04:41:33;95381.72;;;22.33;58.24
37892;BME280;45797;47.466;9.486;2023-09-18T04:46:39;95377.63;;;22.30;58.20
37892;BME280;45797;47.466;9.486;2023-09-18T04:51:52;95377.00;;;22.28;58.54
37892;BME280;45797;47.466;9.486;2023-09-18T04:56:53;95352.56;;;22.31;58.59
37892;BME280;45797;47.466;9.486;2023-09-18T05:02:03;95347.44;;;22.30;58.82
37892;BME280;45797;47.466;9.486;2023-09-18T05:07:06;95367.75;;;22.31;58.95
37892;BME280;45797;47.466;9.486;2023-09-18T05:12:14;95380.47;;;22.29;59.01
37892;BME280;45797;47.466;9.486;2023-09-18T05:17:39;95378.84;;;22.28;59.07
37892;BME280;45797;47.466;9.486;2023-09-18T05:22:52;95395.66;;;22.28;59.02
37892;BME280;45797;47.466;9.486;2023-09-18T05:28:02;95411.09;;;22.33;58.99
37892;BME280;45797;47.466;9.486;2023-09-18T05:33:07;95413.81;;;22.39;59.01
37892;BME280;45797;47.466;9.486;2023-09-18T05:38:10;95414.06;;;22.44;59.27
37892;BME280;45797;47.466;9.486;2023-09-18T05:43:12;95428.50;;;22.50;59.25
37892;BME280;45797;47.466;9.486;2023-09-18T05:48:16;95433.69;;;22.58;59.34
37892;BME280;45797;47.466;9.486;2023-09-18T05:53:17;95423.34;;;22.76;58.78
37892;BME280;45797;47.466;9.486;2023-09-18T05:58:18;95400.03;;;22.92;58.48
37892;BME280;45797;47.466;9.486;2023-09-18T06:03:27;95404.44;;;23.06;58.34
37892;BME280;45797;47.466;9.486;2023-09-18T06:08:31;95414.56;;;23.17;58.07
37892;BME280;45797;47.466;9.486;2023-09-18T06:13:33;95395.09;;;23.30;57.91
37892;BME280;45797;47.466;9.486;2023-09-18T06:18:34;95382.38;;;23.38;58.00
37892;BME280;45797;47.466;9.486;2023-09-18T06:23:44;95383.47;;;23.51;57.89
37892;BME280;45797;47.466;9.486;2023-09-18T06:28:53;95390.53;;;23.65;57.61
37892;BME280;45797;47.466;9.486;2023-09-18T06:34:13;95399.41;;;23.72;57.41
37892;BME280;45797;47.466;9.486;2023-09-18T06:39:18;95404.34;;;23.75;57.72
37892;BME280;45797;47.466;9.486;2023-09-18T06:44:33;95419.75;;;23.67;57.83
37892;BME280;45797;47.466;9.486;2023-09-18T06:49:41;95413.16;;;23.62;58.22
37892;BME280;45797;47.466;9.486;2023-09-18T06:54:42;95414.41;;;23.73;57.84
37892;BME280;45797;47.466;9.486;2023-09-18T06:59:50;95418.34;;;23.84;57.84
37892;BME280;45797;47.466;9.486;2023-09-18T07:04:55;95435.47;;;23.89;58.14
37892;BME280;45797;47.466;9.486;2023-09-18T07:09:58;95473.34;;;23.93;58.24
37892;BME280;45797;47.466;9.486;2023-09-18T07:15:00;95484.28;;;24.05;58.24
37892;BME280;45797;47.466;9.486;2023-09-18T07:20:07;95500.41;;;24.18;57.84
37892;BME280;45797;47.466;9.486;2023-09-18T07:25:16;95503.72;;;24.27;57.96
37892;BME280;45797;47.466;9.486;2023-09-18T07:30:21;95522.72;;;24.38;57.72
37892;BME280;45797;47.466;9.486;2023-09-18T07:35:32;95532.16;;;24.34;57.88
37892;BME280;45797;47.466;9.486;2023-09-18T07:40:40;95549.47;;;24.32;58.08
37892;BME280;45797;47.466;9.486;2023-09-18T07:45:44;95542.19;;;24.26;58.43
37892;BME280;45797;47.466;9.486;2023-09-18T07:50:44;95552.53;;;24.29;58.33
37892;BME280;45797;47.466;9.486;2023-09-18T07:55:44;95552.31;;;24.30;58.33
37892;BME280;45797;47.466;9.486;2023-09-18T08:00:45;95559.06;;;24.13;58.63
37892;BME280;45797;47.466;9.486;2023-09-18T08:06:11;95574.41;;;23.91;58.61
37892;BME280;45797;47.466;9.486;2023-09-18T08:11:12;95579.50;;;23.79;58.62
37892;BME280;45797;47.466;9.486;2023-09-18T08:16:21;95590.38;;;23.78;58.67
37892;BME280;45797;47.466;9.486;2023-09-18T08:21:21;95585.22;;;23.70;58.64
37892;BME280;45797;47.466;9.486;2023-09-18T08:26:22;95595.56;;;23.51;59.44
37892;BME280;45797;47.466;9.486;2023-09-18T08:31:40;95606.59;;;23.42;59.48
37892;BME280;45797;47.466;9.486;2023-09-18T08:36:40;95615.81;;;23.32;59.96
37892;BME280;45797;47.466;9.486;2023-09-18T08:41:43;95626.38;;;23.19;60.56
37892;BME280;45797;47.466;9.486;2023-09-18T08:46:47;95648.16;;;22.95;60.91
37892;BME280;45797;47.466;9.486;2023-09-18T08:51:48;95677.88;;;22.70;61.65
37892;BME280;45797;47.466;9.486;2023-09-18T08:56:50;95679.53;;;22.20;63.50
37892;BME280;45797;47.466;9.486;2023-09-18T09:01:51;95687.19;;;21.56;65.18
37892;BME280;45797;47.466;9.486;2023-09-18T09:06:55;95695.72;;;21.06;66.94
37892;BME280;45797;47.466;9.486;2023-09-18T09:12:09;95691.06;;;20.54;67.86
37892;BME280;45797;47.466;9.486;2023-09-18T09:17:09;95692.31;;;20.27;68.40
37892;BME280;45797;47.466;9.486;2023-09-18T09:22:20;95680.91;;;20.18;69.09
37892;BME280;45797;47.466;9.486;2023-09-18T09:27:20;95678.28;;;20.10;69.21
37892;BME280;45797;47.466;9.486;2023-09-18T09:32:24;95689.13;;;19.92;69.71
37892;BME280;45797;47.466;9.486;2023-09-18T09:37:29;95680.84;;;19.79;70.04
37892;BME280;45797;47.466;9.486;2023-09-18T09:42:38;95687.84;;;19.72;70.24
37892;BME280;45797;47.466;9.486;2023-09-18T09:47:48;95705.94;;;19.68;70.49
37892;BME280;45797;47.466;9.486;2023-09-18T09:52:50;95714.75;;;19.69;71.01
37892;BME280;45797;47.466;9.486;2023-09-18T09:58:08;95721.59;;;19.63;70.74
37892;BME280;45797;47.466;9.486;2023-09-18T10:03:38;95736.03;;;19.61;70.74
37892;BME280;45797;47.466;9.486;2023-09-18T10:08:41;95744.00;;;19.61;71.24
37892;BME280;45797;47.466;9.486;2023-09-18T10:13:55;95739.50;;;19.53;71.79
37892;BME280;45797;47.466;9.486;2023-09-18T10:24:36;95715.75;;;19.76;71.24
37892;BME280;45797;47.466;9.486;2023-09-18T10:29:37;95725.81;;;20.05;70.85
37892;BME280;45797;47.466;9.486;2023-09-18T10:34:48;95732.75;;;20.22;70.33
37892;BME280;45797;47.466;9.486;2023-09-18T10:39:51;95731.94;;;20.14;70.91
37892;BME280;45797;47.466;9.486;2023-09-18T10:44:54;95747.56;;;20.17;71.06
37892;BME280;45797;47.466;9.486;2023-09-18T10:49:58;95737.09;;;20.15;70.88
37892;BME280;45797;47.466;9.486;2023-09-18T10:55:01;95738.06;;;20.22;71.22
37892;BME280;45797;47.466;9.486;2023-09-18T11:00:10;95723.91;;;20.30;71.40
37892;BME280;45797;47.466;9.486;2023-09-18T11:05:28;95718.88;;;20.35;71.08
37892;BME280;45797;47.466;9.486;2023-09-18T11:10:31;95707.06;;;20.46;70.48
37892;BME280;45797;47.466;9.486;2023-09-18T11:15:33;95723.66;;;20.56;70.98
37892;BME280;45797;47.466;9.486;2023-09-18T11:21:10;95727.28;;;20.63;70.32
37892;BME280;45797;47.466;9.486;2023-09-18T11:26:15;95714.78;;;20.64;70.79
37892;BME280;45797;47.466;9.486;2023-09-18T11:31:16;95708.16;;;20.60;70.79
37892;BME280;45797;47.466;9.486;2023-09-18T11:41:42;95687.56;;;20.53;71.01
37892;BME280;45797;47.466;9.486;2023-09-18T11:46:48;95676.88;;;20.62;70.72
37892;BME280;45797;47.466;9.486;2023-09-18T11:51:58;95666.88;;;20.64;70.89
37892;BME280;45797;47.466;9.486;2023-09-18T11:57:03;95658.06;;;20.63;70.75
37892;BME280;45797;47.466;9.486;2023-09-18T12:02:07;95646.31;;;20.58;70.51
37892;BME280;45797;47.466;9.486;2023-09-18T12:07:11;95631.19;;;20.50;71.07
37892;BME280;45797;47.466;9.486;2023-09-18T12:12:21;95628.41;;;20.43;70.86
37892;BME280;45797;47.466;9.486;2023-09-18T12:17:24;95609.31;;;20.32;71.32
37892;BME280;45797;47.466;9.486;2023-09-18T12:22:41;95598.81;;;20.38;70.67
37892;BME280;45797;47.466;9.486;2023-09-18T12:27:43;95589.56;;;20.57;70.40
37892;BME280;45797;47.466;9.486;2023-09-18T12:32:52;95599.56;;;20.78;70.15
37892;BME280;45797;47.466;9.486;2023-09-18T12:38:00;95602.63;;;20.90;69.52
37892;BME280;45797;47.466;9.486;2023-09-18T12:43:06;95589.00;;;21.07;69.05
37892;BME280;45797;47.466;9.486;2023-09-18T12:48:09;95578.81;;;21.26;69.01
37892;BME280;45797;47.466;9.486;2023-09-18T12:53:11;95558.75;;;21.38;68.55
37892;BME280;45797;47.466;9.486;2023-09-18T12:58:21;95542.56;;;21.54;67.92
37892;BME280;45797;47.466;9.486;2023-09-18T13:03:32;95535.03;;;21.73;67.90
37892;BME280;45797;47.466;9.486;2023-09-18T13:08:44;95538.13;;;21.91;67.18
37892;BME280;45797;47.466;9.486;2023-09-18T13:13:56;95562.84;;;22.00;66.92
37892;BME280;45797;47.466;9.486;2023-09-18T13:19:04;95562.47;;;22.17;67.25
37892;BME280;45797;47.466;9.486;2023-09-18T13:29:43;95556.13;;;22.61;65.61
37892;BME280;45797;47.466;9.486;2023-09-18T13:34:51;95540.28;;;22.81;66.22
37892;BME280;45797;47.466;9.486;2023-09-18T13:39:55;95528.41;;;22.84;65.72
37892;BME280;45797;47.466;9.486;2023-09-18T13:44:58;95520.91;;;22.72;66.24
37892;BME280;45797;47.466;9.486;2023-09-18T13:50:15;95532.38;;;22.66;66.20
37892;BME280;45797;47.466;9.486;2023-09-18T13:55:40;95549.28;;;22.52;66.66
37892;BME280;45797;47.466;9.486;2023-09-18T14:00:41;95547.44;;;22.31;66.78
37892;BME280;45797;47.466;9.486;2023-09-18T14:05:43;95530.63;;;22.16;67.32
37892;BME280;45797;47.466;9.486;2023-09-18T14:10:44;95514.25;;;22.19;66.99
37892;BME280;45797;47.466;9.486;2023-09-18T14:15:44;95493.44;;;22.36;66.97
37892;BME280;45797;47.466;9.486;2023-09-18T14:20:50;95497.66;;;22.66;65.99
37892;BME280;45797;47.466;9.486;2023-09-18T14:25:52;95492.69;;;22.85;65.61
37892;BME280;45797;47.466;9.486;2023-09-18T14:30:55;95475.66;;;22.92;64.80
37892;BME280;45797;47.466;9.486;2023-09-18T14:35:57;95463.59;;;22.96;65.11
37892;BME280;45797;47.466;9.486;2023-09-18T14:41:01;95470.97;;;22.94;65.28
37892;BME280;45797;47.466;9.486;2023-09-18T14:46:04;95468.59;;;23.06;64.08
37892;BME280;45797;47.466;9.486;2023-09-18T14:51:05;95476.44;;;23.14;64.33
37892;BME280;45797;47.466;9.486;2023-09-18T14:56:06;95478.81;;;23.02;65.03
37892;BME280;45797;47.466;9.486;2023-09-18T15:01:14;95480.31;;;22.84;65.29
37892;BME280;45797;47.466;9.486;2023-09-18T15:06:17;95459.63;;;22.86;65.16
37892;BME280;45797;47.466;9.486;2023-09-18T15:11:25;95467.91;;;22.97;64.91
37892;BME280;45797;47.466;9.486;2023-09-18T15:16:57;95453.16;;;23.08;64.98
37892;BME280;45797;47.466;9.486;2023-09-18T15:21:59;95455.28;;;23.19;64.88
37892;BME280;45797;47.466;9.486;2023-09-18T15:27:01;95439.75;;;22.95;65.43
37892;BME280;45797;47.466;9.486;2023-09-18T15:32:04;95432.13;;;22.70;65.50
37892;BME280;45797;47.466;9.486;2023-09-18T15:37:10;95438.16;;;22.51;65.93
37892;BME280;45797;47.466;9.486;2023-09-18T15:42:10;95442.31;;;22.32;66.73
37892;BME280;45797;47.466;9.486;2023-09-18T15:47:13;95456.72;;;22.16;66.97
37892;BME280;45797;47.466;9.486;2023-09-18T15:52:16;95449.38;;;22.04;67.36
37892;BME280;45797;47.466;9.486;2023-09-18T15:57:18;95449.91;;;21.92;67.20
37892;BME280;45797;47.466;9.486;2023-09-18T16:02:19;95449.94;;;21.78;67.47
37892;BME280;45797;47.466;9.486;2023-09-18T16:07:19;95428.66;;;21.63;67.97
37892;BME280;45797;47.466;9.486;2023-09-18T16:12:20;95414.72;;;21.46;68.30
37892;BME280;45797;47.466;9.486;2023-09-18T16:17:22;95400.97;;;21.28;69.11
37892;BME280;45797;47.466;9.486;2023-09-18T16:22:26;95373.84;;;21.09;69.22
37892;BME280;45797;47.466;9.486;2023-09-18T16:27:29;95365.06;;;20.94;69.69
37892;BME280;45797;47.466;9.486;2023-09-18T16:32:30;95368.56;;;20.80;70.06
37892;BME280;45797;47.466;9.486;2023-09-18T16:37:32;95323.38;;;20.72;70.06
37892;BME280;45797;47.466;9.486;2023-09-18T16:42:33;95380.38;;;20.63;69.35
37892;BME280;45797;47.466;9.486;2023-09-18T16:47:35;95380.13;;;20.58;68.98
37892;BME280;45797;47.466;9.486;2023-09-18T16:52:36;95371.41;;;20.49;68.84
37892;BME280;45797;47.466;9.486;2023-09-18T16:57:36;95371.09;;;20.44;69.36
37892;BME280;45797;47.466;9.486;2023-09-18T17:02:39;95370.81;;;20.39;69.59
37892;BME280;45797;47.466;9.486;2023-09-18T17:07:41;95360.41;;;20.29;70.00
37892;BME280;45797;47.466;9.486;2023-09-18T17:12:48;95366.44;;;20.23;70.12
37892;BME280;45797;47.466;9.486;2023-09-18T17:17:51;95372.16;;;20.20;70.31
37892;BME280;45797;47.466;9.486;2023-09-18T17:22:58;95359.56;;;20.14;70.32
37892;BME280;45797;47.466;9.486;2023-09-18T17:27:58;95365.13;;;20.04;70.56
37892;BME280;45797;47.466;9.486;2023-09-18T17:33:12;95373.16;;;19.96;70.87
37892;BME280;45797;47.466;9.486;2023-09-18T17:38:16;95376.56;;;19.90;70.88
37892;BME280;45797;47.466;9.486;2023-09-18T17:43:16;95378.09;;;19.84;71.48
37892;BME280;45797;47.466;9.486;2023-09-18T17:48:17;95402.91;;;19.77;71.63
37892;BME280;45797;47.466;9.486;2023-09-18T17:53:18;95401.59;;;19.73;71.60
37892;BME280;45797;47.466;9.486;2023-09-18T17:58:20;95404.97;;;19.66;72.33
37892;BME280;45797;47.466;9.486;2023-09-18T18:03:21;95422.28;;;19.62;71.81
37892;BME280;45797;47.466;9.486;2023-09-18T18:08:22;95423.94;;;19.55;72.05
37892;BME280;45797;47.466;9.486;2023-09-18T18:13:32;95433.78;;;19.47;72.13
37892;BME280;45797;47.466;9.486;2023-09-18T18:18:33;95438.94;;;19.40;72.40
37892;BME280;45797;47.466;9.486;2023-09-18T18:23:34;95439.50;;;19.35;72.41
37892;BME280;45797;47.466;9.486;2023-09-18T18:28:36;95455.94;;;19.31;72.66
37892;BME280;45797;47.466;9.486;2023-09-18T18:33:38;95470.25;;;19.22;72.23
37892;BME280;45797;47.466;9.486;2023-09-18T18:38:41;95486.06;;;19.15;72.36
37892;BME280;45797;47.466;9.486;2023-09-18T18:43:42;95478.09;;;19.07;72.44
37892;BME280;45797;47.466;9.486;2023-09-18T18:48:52;95497.72;;;18.98;72.41
37892;BME280;45797;47.466;9.486;2023-09-18T18:53:53;95489.59;;;18.91;72.74
37892;BME280;45797;47.466;9.486;2023-09-18T18:58:55;95488.59;;;18.84;72.69
37892;BME280;45797;47.466;9.486;2023-09-18T19:03:58;95493.59;;;18.79;72.80
37892;BME280;45797;47.466;9.486;2023-09-18T19:09:09;95496.25;;;18.71;73.18
37892;BME280;45797;47.466;9.486;2023-09-18T19:14:12;95504.88;;;18.73;73.37
37892;BME280;45797;47.466;9.486;2023-09-18T19:19:12;95518.16;;;18.73;73.04
37892;BME280;45797;47.466;9.486;2023-09-18T19:24:13;95525.94;;;18.74;72.89
37892;BME280;45797;47.466;9.486;2023-09-18T19:29:14;95528.41;;;18.76;72.79
37892;BME280;45797;47.466;9.486;2023-09-18T19:34:17;95525.28;;;18.72;72.84
37892;BME280;45797;47.466;9.486;2023-09-18T19:39:17;95516.19;;;18.67;73.28
37892;BME280;45797;47.466;9.486;2023-09-18T19:44:27;95519.94;;;18.56;73.60
37892;BME280;45797;47.466;9.486;2023-09-18T19:49:28;95510.03;;;18.50;73.35
37892;BME280;45797;47.466;9.486;2023-09-18T19:54:28;95524.59;;;18.46;73.80
37892;BME280;45797;47.466;9.486;2023-09-18T19:59:31;95527.75;;;18.41;73.66
37892;BME280;45797;47.466;9.486;2023-09-18T20:04:33;95536.19;;;18.37;73.29
37892;BME280;45797;47.466;9.486;2023-09-18T20:09:33;95534.38;;;18.29;73.60
37892;BME280;45797;47.466;9.486;2023-09-18T20:14:34;95538.34;;;18.25;73.83
37892;BME280;45797;47.466;9.486;2023-09-18T20:19:44;95540.16;;;18.16;74.01
37892;BME280;45797;47.466;9.486;2023-09-18T20:24:58;95549.75;;;18.09;74.07
37892;BME280;45797;47.466;9.486;2023-09-18T20:30:01;95560.69;;;18.06;73.85
37892;BME280;45797;47.466;9.486;2023-09-18T20:35:01;95559.53;;;18.01;74.64
37892;BME280;45797;47.466;9.486;2023-09-18T20:40:11;95559.16;;;17.95;74.43
37892;BME280;45797;47.466;9.486;2023-09-18T20:45:17;95559.81;;;17.89;74.52
37892;BME280;45797;47.466;9.486;2023-09-18T20:50:18;95560.31;;;17.85;74.48
37892;BME280;45797;47.466;9.486;2023-09-18T20:55:18;95559.31;;;17.86;74.67
37892;BME280;45797;47.466;9.486;2023-09-18T21:00:21;95558.97;;;17.89;74.56
37892;BME280;45797;47.466;9.486;2023-09-18T21:05:24;95563.44;;;17.88;74.04
37892;BME280;45797;47.466;9.486;2023-09-18T21:10:35;95574.72;;;17.90;74.42
37892;BME280;45797;47.466;9.486;2023-09-18T21:15:39;95588.69;;;18.01;74.21
37892;BME280;45797;47.466;9.486;2023-09-18T21:20:58;95578.56;;;18.04;73.71
37892;BME280;45797;47.466;9.486;2023-09-18T21:25:59;95569.28;;;18.08;73.81
37892;BME280;45797;47.466;9.486;2023-09-18T21:31:10;95569.97;;;18.02;74.00
37892;BME280;45797;47.466;9.486;2023-09-18T21:36:20;95580.22;;;17.97;74.11
37892;BME280;45797;47.466;9.486;2023-09-18T21:41:22;95576.72;;;17.96;74.43
37892;BME280;45797;47.466;9.486;2023-09-18T21:46:24;95584.34;;;17.91;74.81
37892;BME280;45797;47.466;9.486;2023-09-18T21:51:25;95587.00;;;17.91;74.53
37892;BME280;45797;47.466;9.486;2023-09-18T21:56:28;95601.25;;;17.98;74.67
37892;BME280;45797;47.466;9.486;2023-09-18T22:01:30;95594.13;;;17.99;74.52
37892;BME280;45797;47.466;9.486;2023-09-18T22:06:32;95597.44;;;17.93;74.56
37892;BME280;45797;47.466;9.486;2023-09-18T22:11:32;95605.03;;;17.88;74.70
37892;BME280;45797;47.466;9.486;2023-09-18T22:16:39;95614.28;;;17.84;74.97
37892;BME280;45797;47.466;9.486;2023-09-18T22:21:40;95625.22;;;17.89;75.05
37892;BME280;45797;47.466;9.486;2023-09-18T22:26:46;95626.44;;;17.94;74.63
37892;BME280;45797;47.466;9.486;2023-09-18T22:31:47;95632.88;;;18.00;74.61
37892;BME280;45797;47.466;9.486;2023-09-18T22:36:55;95637.88;;;18.03;74.49
37892;BME280;45797;47.466;9.486;2023-09-18T22:57:57;95615.75;;;18.20;74.57
37892;BME280;45797;47.466;9.486;2023-09-18T23:03:04;95623.06;;;18.35;73.55
37892;BME280;45797;47.466;9.486;2023-09-18T23:08:07;95643.78;;;18.47;73.63
37892;BME280;45797;47.466;9.486;2023-09-18T23:13:09;95656.91;;;18.49;73.43
37892;BME280;45797;47.466;9.486;2023-09-18T23:18:19;95658.91;;;18.55;73.17
37892;BME280;45797;47.466;9.486;2023-09-18T23:23:23;95658.78;;;18.65;72.70
37892;BME280;45797;47.466;9.486;2023-09-18T23:28:28;95667.28;;;18.68;72.74
37892;BME280;45797;47.466;9.486;2023-09-18T23:33:31;95691.97;;;18.69;72.61
37892;BME280;45797;47.466;9.486;2023-09-18T23:38:33;95678.72;;;18.69;72.39
37892;BME280;45797;47.466;9.486;2023-09-18T23:43:38;95692.66;;;18.71;72.18
37892;BME280;45797;47.466;9.486;2023-09-18T23:48:38;95707.41;;;18.73;71.98
37892;BME280;45797;47.466;9.486;2023-09-18T23:53:43;95714.06;;;18.77;72.19
37892;BME280;45797;47.466;9.486;2023-09-18T23:58:47;95704.44;;;18.76;72.33
